Time;durP1;ratioP1;P1;durP2;ratioP2;P2;SDS_P1;SDS_P2;PMS_P1;PMS_P2;Temp;Humidity;BMP_temperature;BMP_pressure;BME280_temperature;BME280_humidity;BME280_pressure;Samples;Min_cycle;Max_cycle;Signal;HPM_P1;HPM_P2
2021/08/01 00:00:15;;;;;;;10.73;5.88;;;16.30;99.90;;;;;;5112506;28;20424;-56
2021/08/01 00:02:41;;;;;;;12.05;6.00;;;17.80;99.90;;;;;;5111729;28;20479;-56
2021/08/01 00:05:08;;;;;;;9.32;5.30;;;17.70;99.90;;;;;;5112095;28;20433;-56
2021/08/01 00:07:35;;;;;;;10.00;5.78;;;17.60;99.90;;;;;;5112765;28;20392;-54
2021/08/01 00:10:01;;;;;;;9.65;6.03;;;17.50;99.90;;;;;;5110733;28;20425;-55
2021/08/01 00:12:27;;;;;;;10.17;6.53;;;17.50;99.90;;;;;;5112696;28;20431;-55
2021/08/01 00:14:53;;;;;;;11.43;6.28;;;17.50;99.90;;;;;;5112267;28;20887;-56
2021/08/01 00:17:19;;;;;;;10.85;6.60;;;17.60;99.90;;;;;;5112932;28;20471;-55
2021/08/01 00:19:44;;;;;;;9.45;5.93;;;17.60;99.90;;;;;;5112689;28;20471;-55
2021/08/01 00:22:10;;;;;;;9.13;6.10;;;17.50;99.90;;;;;;5111680;28;20372;-55
2021/08/01 00:24:36;;;;;;;9.90;6.32;;;17.40;99.90;;;;;;5112933;28;20846;-55
2021/08/01 00:27:02;;;;;;;11.80;6.40;;;17.40;99.90;;;;;;5110268;28;20412;-55
2021/08/01 00:29:28;;;;;;;10.45;5.75;;;17.40;99.90;;;;;;5112578;28;20467;-55
2021/08/01 00:31:54;;;;;;;9.93;5.90;;;17.40;99.90;;;;;;5111389;28;20459;-57
2021/08/01 00:34:26;;;;;;;10.82;5.55;;;17.40;99.90;;;;;;5112403;28;20459;-55
2021/08/01 00:36:52;;;;;;;10.80;5.50;;;17.30;99.90;;;;;;5112315;28;20395;-56
2021/08/01 00:39:17;;;;;;;8.68;5.35;;;17.20;99.90;;;;;;5111742;28;20373;-55
2021/08/01 00:41:43;;;;;;;12.27;5.60;;;17.40;99.90;;;;;;5112235;28;20395;-55
2021/08/01 00:44:09;;;;;;;7.63;5.30;;;17.40;99.90;;;;;;5111509;28;20391;-55
2021/08/01 00:46:35;;;;;;;8.23;5.20;;;17.40;99.90;;;;;;5112157;28;20951;-55
2021/08/01 00:49:01;;;;;;;8.90;5.72;;;17.40;99.90;;;;;;5111126;28;20392;-55
2021/08/01 00:51:31;;;;;;;10.32;5.88;;;17.30;99.90;;;;;;5112025;28;20381;-55
2021/08/01 00:54:01;;;;;;;9.90;5.72;;;17.30;99.90;;;;;;5111256;28;20563;-56
2021/08/01 00:56:27;;;;;;;8.85;5.35;;;17.30;99.90;;;;;;5112022;28;20388;-55
2021/08/01 00:58:53;;;;;;;11.50;5.40;;;17.40;99.90;;;;;;5111829;27;20490;-55
2021/08/01 01:01:43;;;;;;;11.77;5.40;;;17.40;99.90;;;;;;5110972;28;20451;-55
2021/08/01 01:04:09;;;;;;;10.98;5.20;;;17.50;99.90;;;;;;5110785;28;20376;-55
2021/08/01 01:06:59;;;;;;;9.40;5.50;;;17.50;99.90;;;;;;5111540;28;20875;-55
2021/08/01 01:09:38;;;;;;;9.52;5.05;;;17.50;99.90;;;;;;5091313;28;20394;-55
2021/08/01 01:12:09;;;;;;;9.20;4.78;;;17.50;99.90;;;;;;5090246;28;20387;-55
2021/08/01 01:14:42;;;;;;;11.60;5.50;;;17.40;99.90;;;;;;5091084;28;20398;-55
2021/08/01 01:17:12;;;;;;;11.30;5.47;;;17.50;99.90;;;;;;5090352;28;20390;-55
2021/08/01 01:19:59;;;;;;;8.07;5.50;;;17.40;99.90;;;;;;5090763;28;20386;-54
2021/08/01 01:22:51;;;;;;;9.80;5.93;;;17.40;99.90;;;;;;5091133;28;20436;-55
2021/08/01 01:25:35;;;;;;;10.60;5.43;;;17.40;99.90;;;;;;5090160;28;20382;-55
2021/08/01 01:28:10;;;;;;;10.63;5.75;;;17.40;99.90;;;;;;5089969;28;20382;-56
2021/08/01 01:30:44;;;;;;;11.18;5.20;;;17.40;99.90;;;;;;5090741;28;20371;-55
2021/08/01 01:33:12;;;;;;;10.00;5.90;;;17.30;99.90;;;;;;5089991;28;20829;-55
2021/08/01 01:35:44;;;;;;;8.70;5.60;;;17.20;99.90;;;;;;5090777;28;20406;-55
2021/08/01 01:38:10;;;;;;;8.30;5.70;;;17.30;99.90;;;;;;5090154;28;20409;-55
2021/08/01 01:40:37;;;;;;;12.07;5.43;;;17.30;99.90;;;;;;5090816;28;20413;-55
2021/08/01 01:43:05;;;;;;;14.10;6.15;;;17.30;99.90;;;;;;5088922;28;20410;-55
2021/08/01 01:45:32;;;;;;;9.90;5.78;;;17.40;99.90;;;;;;5090718;28;20371;-55
2021/08/01 01:47:59;;;;;;;8.77;5.75;;;17.50;99.90;;;;;;5090586;28;20386;-56
2021/08/01 01:50:25;;;;;;;11.80;6.03;;;15.60;99.90;;;;;;5090328;28;20386;-55
2021/08/01 01:52:53;;;;;;;9.55;6.00;;;17.40;99.90;;;;;;5090395;28;20397;-56
2021/08/01 01:55:20;;;;;;;9.07;5.90;;;15.80;99.90;;;;;;5089694;28;20426;-56
2021/08/01 01:57:47;;;;;;;10.50;5.90;;;17.20;99.90;;;;;;5090503;28;20382;-56
2021/08/01 02:00:13;;;;;;;8.68;6.22;;;17.20;99.90;;;;;;5089503;28;20378;-56
2021/08/01 02:02:40;;;;;;;12.98;6.60;;;17.10;99.90;;;;;;5090399;28;20382;-56
2021/08/01 02:05:06;;;;;;;12.18;6.13;;;17.00;99.90;;;;;;5089473;28;20378;-56
2021/08/01 02:07:33;;;;;;;11.00;6.50;;;16.90;99.90;;;;;;5090191;28;20467;-56
2021/08/01 02:10:10;;;;;;;10.35;5.80;;;16.80;99.90;;;;;;5090068;28;20388;-56
2021/08/01 02:12:42;;;;;;;11.07;6.40;;;16.90;99.90;;;;;;5090199;28;20382;-56
2021/08/01 02:15:08;;;;;;;12.25;6.60;;;16.90;99.90;;;;;;5087825;28;20418;-56
2021/08/01 02:17:55;;;;;;;13.40;6.25;;;16.90;99.90;;;;;;5090236;28;20390;-56
2021/08/01 02:20:26;;;;;;;9.52;6.00;;;17.10;99.90;;;;;;5089333;28;20390;-56
2021/08/01 02:22:53;;;;;;;9.55;6.30;;;17.00;99.90;;;;;;5089868;28;20405;-56
2021/08/01 02:25:20;;;;;;;9.87;5.87;;;17.10;99.90;;;;;;5089458;28;20374;-56
2021/08/01 02:27:48;;;;;;;11.43;6.20;;;17.10;99.90;;;;;;5089982;28;20459;-56
2021/08/01 02:30:15;;;;;;;10.13;6.25;;;17.10;99.90;;;;;;5089063;28;20484;-57
2021/08/01 02:32:41;;;;;;;9.88;6.13;;;17.30;99.90;;;;;;5090440;28;20414;-56
2021/08/01 02:35:08;;;;;;;13.05;6.20;;;17.30;99.90;;;;;;5089566;28;20401;-57
2021/08/01 02:37:37;;;;;;;11.85;6.60;;;17.30;99.90;;;;;;5090088;28;20386;-55
2021/08/01 02:40:03;;;;;;;12.40;5.90;;;17.30;99.90;;;;;;5089425;28;20853;-56
2021/08/01 02:42:30;;;;;;;9.50;5.88;;;17.30;99.90;;;;;;5089956;28;20387;-56
2021/08/01 02:44:59;;;;;;;9.70;5.90;;;17.30;99.90;;;;;;5106518;28;20396;-56
2021/08/01 02:47:29;;;;;;;9.93;6.00;;;17.30;99.90;;;;;;5109786;28;20401;-56
2021/08/01 02:49:55;;;;;;;9.23;6.37;;;17.30;99.90;;;;;;5110030;28;20474;-56
2021/08/01 02:52:28;;;;;;;9.80;6.80;;;17.40;99.90;;;;;;5109153;28;20976;-56
2021/08/01 02:54:54;;;;;;;9.82;6.07;;;17.30;99.90;;;;;;5111808;28;20380;-56
2021/08/01 02:57:23;;;;;;;10.27;6.53;;;17.20;99.90;;;;;;5112145;28;20873;-56
2021/08/01 02:59:49;;;;;;;9.73;6.63;;;17.20;99.90;;;;;;5114186;28;20380;-56
2021/08/01 03:02:15;;;;;;;13.90;6.50;;;17.20;99.90;;;;;;5113644;28;20392;-57
2021/08/01 03:04:42;;;;;;;16.08;7.00;;;17.20;99.90;;;;;;5114211;28;20411;-57
2021/08/01 03:07:11;;;;;;;11.77;6.55;;;17.20;99.90;;;;;;5113118;28;20517;-57
2021/08/01 03:09:37;;;;;;;9.33;6.40;;;17.20;99.90;;;;;;5114313;28;20383;-57
2021/08/01 03:12:13;;;;;;;10.30;6.40;;;17.10;99.90;;;;;;5113753;28;20380;-58
2021/08/01 03:14:40;;;;;;;10.37;6.70;;;17.10;99.90;;;;;;5113728;28;20408;-57
2021/08/01 03:17:06;;;;;;;10.37;6.60;;;17.10;99.90;;;;;;5112992;28;20870;-58
2021/08/01 03:19:39;;;;;;;13.07;7.00;;;17.20;99.90;;;;;;5113446;28;20372;-56
2021/08/01 03:22:05;;;;;;;11.90;6.80;;;17.20;99.90;;;;;;5113189;28;20383;-58
2021/08/01 03:24:31;;;;;;;11.30;6.50;;;17.20;99.90;;;;;;5113598;28;20743;-56
2021/08/01 03:26:57;;;;;;;10.32;6.50;;;17.10;99.90;;;;;;5113072;28;20407;-56
2021/08/01 03:29:23;;;;;;;13.63;6.50;;;17.10;99.90;;;;;;5112985;28;20972;-56
2021/08/01 03:31:48;;;;;;;13.23;6.87;;;17.10;99.90;;;;;;5113584;28;20388;-55
2021/08/01 03:34:14;;;;;;;12.38;6.97;;;17.10;99.90;;;;;;5105148;28;20887;-56
2021/08/01 03:36:40;;;;;;;13.83;6.60;;;17.10;99.90;;;;;;5112929;28;20428;-56
2021/08/01 03:39:07;;;;;;;11.95;6.72;;;17.10;99.90;;;;;;5112610;28;20381;-56
2021/08/01 03:41:32;;;;;;;11.30;6.40;;;17.00;99.90;;;;;;5113734;28;20710;-56
2021/08/01 03:43:58;;;;;;;9.97;6.27;;;16.90;99.90;;;;;;5113355;28;20858;-56
2021/08/01 03:46:24;;;;;;;10.45;7.00;;;16.80;99.90;;;;;;5112633;28;20690;-56
2021/08/01 03:48:49;;;;;;;12.70;6.85;;;16.70;99.90;;;;;;5113363;28;20392;-55
2021/08/01 03:51:15;;;;;;;11.50;6.60;;;16.70;99.90;;;;;;5112156;28;20396;-55
2021/08/01 03:53:41;;;;;;;11.40;6.50;;;16.70;99.90;;;;;;5113214;28;20894;-55
2021/08/01 03:56:07;;;;;;;12.90;7.03;;;16.60;99.90;;;;;;5112554;28;20420;-57
2021/08/01 03:58:32;;;;;;;15.30;7.20;;;16.70;99.90;;;;;;5112987;28;20380;-55
2021/08/01 04:00:58;;;;;;;14.15;7.10;;;16.70;99.90;;;;;;5113279;28;20384;-55
2021/08/01 04:03:24;;;;;;;12.83;7.37;;;16.80;99.90;;;;;;5112393;28;20406;-55
2021/08/01 04:05:49;;;;;;;12.43;6.70;;;16.80;99.90;;;;;;5112317;28;20802;-55
2021/08/01 04:08:15;;;;;;;12.85;7.10;;;16.80;99.90;;;;;;5093228;28;20903;-56
2021/08/01 04:10:41;;;;;;;13.03;7.30;;;16.70;99.90;;;;;;5092259;28;20531;-55
2021/08/01 04:13:06;;;;;;;14.13;7.93;;;16.80;99.90;;;;;;5095638;28;20945;-57
2021/08/01 04:15:32;;;;;;;18.58;7.55;;;16.80;99.90;;;;;;5112679;28;20483;-55
2021/08/01 04:18:01;;;;;;;15.57;7.88;;;16.80;99.90;;;;;;5112897;28;20533;-55
2021/08/01 04:20:27;;;;;;;12.10;7.28;;;16.80;99.90;;;;;;5112077;28;20497;-55
2021/08/01 04:22:53;;;;;;;13.70;7.15;;;16.70;99.90;;;;;;5112412;28;20384;-55
2021/08/01 04:25:20;;;;;;;13.73;7.70;;;16.60;99.90;;;;;;5112272;28;20381;-56
2021/08/01 04:27:46;;;;;;;12.77;7.60;;;16.70;99.90;;;;;;5112527;28;20403;-55
2021/08/01 04:30:12;;;;;;;11.83;7.60;;;16.70;99.90;;;;;;5111914;28;20384;-55
2021/08/01 04:32:38;;;;;;;12.40;6.95;;;16.80;99.90;;;;;;5111861;28;20384;-55
2021/08/01 04:35:05;;;;;;;12.30;7.50;;;16.90;99.90;;;;;;5112223;28;20720;-55
2021/08/01 04:37:30;;;;;;;14.25;6.88;;;16.90;99.90;;;;;;5110962;28;20492;-55
2021/08/01 04:39:56;;;;;;;13.90;7.90;;;16.80;99.90;;;;;;5112020;28;20835;-55
2021/08/01 04:42:21;;;;;;;11.80;7.30;;;16.70;99.90;;;;;;5110992;28;20440;-55
2021/08/01 04:44:47;;;;;;;15.25;8.50;;;16.80;99.90;;;;;;5112031;28;20704;-55
2021/08/01 04:47:14;;;;;;;12.15;7.60;;;16.80;99.90;;;;;;5110121;28;20422;-55
2021/08/01 04:49:40;;;;;;;13.83;7.10;;;16.70;99.90;;;;;;5112156;28;20386;-54
2021/08/01 04:52:06;;;;;;;11.57;6.70;;;16.70;99.90;;;;;;5111967;28;20376;-56
2021/08/01 04:54:35;;;;;;;12.13;6.72;;;16.70;99.90;;;;;;5111328;28;20384;-54
2021/08/01 04:57:01;;;;;;;11.60;7.32;;;16.60;99.90;;;;;;5111882;28;20392;-54
2021/08/01 04:59:26;;;;;;;11.68;6.10;;;16.70;99.90;;;;;;5111037;28;20384;-54
2021/08/01 05:01:52;;;;;;;13.13;7.50;;;16.70;99.90;;;;;;5111707;28;20380;-54
2021/08/01 05:04:19;;;;;;;12.00;6.50;;;16.80;99.90;;;;;;5111040;28;20844;-54
2021/08/01 05:06:45;;;;;;;11.65;6.95;;;16.80;99.90;;;;;;5110521;28;20396;-54
2021/08/01 05:09:11;;;;;;;11.30;7.00;;;16.90;99.90;;;;;;5110820;28;20380;-56
2021/08/01 05:11:37;;;;;;;15.52;7.70;;;16.80;99.90;;;;;;5106952;28;20380;-54
2021/08/01 05:14:02;;;;;;;10.20;6.37;;;16.80;99.90;;;;;;5104021;28;20404;-54
2021/08/01 05:16:28;;;;;;;13.95;7.15;;;16.70;99.90;;;;;;5110972;28;20380;-55
2021/08/01 05:18:54;;;;;;;16.20;8.53;;;16.50;99.90;;;;;;5111370;28;20380;-54
2021/08/01 05:21:21;;;;;;;11.00;7.37;;;16.50;99.90;;;;;;5110140;28;20448;-54
2021/08/01 05:23:46;;;;;;;13.25;7.60;;;16.30;99.90;;;;;;5111203;28;20875;-54
2021/08/01 05:26:12;;;;;;;12.07;7.93;;;16.40;99.90;;;;;;5110343;28;20435;-55
2021/08/01 05:28:38;;;;;;;15.05;7.32;;;16.40;99.90;;;;;;5111762;28;20384;-54
2021/08/01 05:31:03;;;;;;;13.57;7.47;;;16.40;99.90;;;;;;5111077;28;20364;-54
2021/08/01 05:33:29;;;;;;;14.73;7.07;;;16.40;99.90;;;;;;5110477;28;20383;-54
2021/08/01 05:35:55;;;;;;;15.07;7.60;;;16.40;99.90;;;;;;5102684;28;20400;-54
2021/08/01 05:38:20;;;;;;;10.93;7.70;;;16.50;99.90;;;;;;5110822;28;20723;-54
2021/08/01 05:40:46;;;;;;;12.07;6.90;;;16.60;99.90;;;;;;5110474;28;20385;-54
2021/08/01 05:43:12;;;;;;;12.68;7.28;;;16.70;99.90;;;;;;5110083;28;20882;-56
2021/08/01 05:45:37;;;;;;;14.55;7.60;;;16.80;99.90;;;;;;5108236;28;20397;-54
2021/08/01 05:48:03;;;;;;;12.13;6.73;;;16.80;99.90;;;;;;5110383;28;20381;-54
2021/08/01 05:50:29;;;;;;;13.68;7.43;;;16.90;99.90;;;;;;5098349;28;20647;-54
2021/08/01 05:52:55;;;;;;;11.33;6.40;;;17.00;99.90;;;;;;5109889;28;20446;-54
2021/08/01 05:55:20;;;;;;;12.20;7.05;;;17.10;99.90;;;;;;5107691;28;20424;-54
2021/08/01 05:57:46;;;;;;;12.65;7.00;;;17.20;99.90;;;;;;5107801;28;20499;-54
2021/08/01 06:00:12;;;;;;;12.10;6.83;;;17.20;99.90;;;;;;5107079;27;20747;-56
2021/08/01 06:02:38;;;;;;;11.20;7.05;;;17.20;99.90;;;;;;5102835;28;20388;-54
2021/08/01 06:05:04;;;;;;;12.45;6.90;;;17.30;99.90;;;;;;5107477;28;20783;-54
2021/08/01 06:07:30;;;;;;;9.70;7.00;;;17.50;99.90;;;;;;5104020;28;20511;-54
2021/08/01 06:09:55;;;;;;;14.23;7.87;;;17.50;99.90;;;;;;5106575;28;20475;-54
2021/08/01 06:12:21;;;;;;;12.52;6.90;;;17.50;99.90;;;;;;5108402;28;20847;-54
2021/08/01 06:14:48;;;;;;;11.93;7.53;;;17.40;99.90;;;;;;5108751;28;20464;-54
2021/08/01 06:17:14;;;;;;;9.98;6.25;;;17.40;99.90;;;;;;5106056;28;20854;-56
2021/08/01 06:19:40;;;;;;;11.13;6.73;;;17.50;99.90;;;;;;5107663;28;20443;-55
2021/08/01 06:22:05;;;;;;;10.75;7.43;;;17.50;99.90;;;;;;5104273;28;20386;-54
2021/08/01 06:24:31;;;;;;;11.83;6.83;;;17.60;99.90;;;;;;5105049;28;20653;-55
2021/08/01 06:26:57;;;;;;;10.43;6.87;;;17.70;99.90;;;;;;5107428;28;20461;-54
2021/08/01 06:29:23;;;;;;;10.25;6.90;;;17.80;99.90;;;;;;5105400;28;20420;-55
2021/08/01 06:31:48;;;;;;;10.70;6.73;;;17.80;99.90;;;;;;5103927;28;20783;-55
2021/08/01 06:34:14;;;;;;;11.45;6.90;;;18.00;99.90;;;;;;5108037;28;20851;-57
2021/08/01 06:36:40;;;;;;;11.98;6.68;;;18.10;99.90;;;;;;5104543;28;20458;-56
2021/08/01 06:39:07;;;;;;;11.23;6.70;;;18.10;99.90;;;;;;5102912;28;20433;-55
2021/08/01 06:41:33;;;;;;;13.18;7.18;;;17.80;99.90;;;;;;5105473;28;20466;-55
2021/08/01 06:43:59;;;;;;;11.20;6.50;;;16.20;99.90;;;;;;5106398;28;20476;-55
2021/08/01 06:46:24;;;;;;;11.80;6.47;;;19.00;99.90;;;;;;5106238;28;20450;-55
2021/08/01 06:48:50;;;;;;;11.63;6.47;;;17.70;99.90;;;;;;5106209;28;20400;-55
2021/08/01 06:51:15;;;;;;;9.83;6.87;;;17.70;99.90;;;;;;5099831;28;20471;-56
2021/08/01 06:53:41;;;;;;;11.13;6.40;;;17.80;99.90;;;;;;5099121;28;20385;-55
2021/08/01 06:56:07;;;;;;;12.95;6.53;;;17.80;99.90;;;;;;5107897;28;20392;-55
2021/08/01 06:58:32;;;;;;;10.15;6.53;;;17.80;99.90;;;;;;5106078;28;20395;-54
2021/08/01 07:00:58;;;;;;;12.50;6.70;;;18.00;99.90;;;;;;5106969;28;20460;-55
2021/08/01 07:03:26;;;;;;;12.23;7.10;;;18.00;99.90;;;;;;5103098;28;20849;-55
2021/08/01 07:05:52;;;;;;;10.68;6.30;;;18.10;99.90;;;;;;5104990;28;20544;-56
2021/08/01 07:08:18;;;;;;;12.50;6.37;;;18.10;99.90;;;;;;5101045;28;20390;-57
2021/08/01 07:10:43;;;;;;;9.03;5.40;;;18.20;99.90;;;;;;5097294;28;20381;-55
2021/08/01 07:13:09;;;;;;;10.25;5.22;;;18.30;99.90;;;;;;5101038;28;20403;-55
2021/08/01 07:15:37;;;;;;;10.98;5.10;;;18.30;99.90;;;;;;5106549;28;20404;-55
2021/08/01 07:18:03;;;;;;;10.73;5.13;;;18.30;99.90;;;;;;5101943;28;20408;-55
2021/08/01 07:20:30;;;;;;;9.73;5.38;;;18.30;99.90;;;;;;5096373;28;20904;-55
2021/08/01 07:22:56;;;;;;;9.93;5.20;;;18.50;99.90;;;;;;5096628;28;20407;-55
2021/08/01 07:25:25;;;;;;;8.27;5.15;;;18.60;99.90;;;;;;5098026;28;20398;-55
2021/08/01 07:27:54;;;;;;;8.40;4.70;;;18.60;99.90;;;;;;5097314;28;20874;-55
2021/08/01 07:30:20;;;;;;;11.48;5.53;;;18.50;99.90;;;;;;5101956;28;20396;-56
2021/08/01 07:32:46;;;;;;;8.73;5.30;;;18.40;99.90;;;;;;5093116;28;20797;-55
2021/08/01 07:35:12;;;;;;;11.75;5.45;;;18.60;99.90;;;;;;5097463;28;20394;-55
2021/08/01 07:37:38;;;;;;;9.00;5.70;;;18.50;99.90;;;;;;5091846;28;20459;-55
2021/08/01 07:40:04;;;;;;;10.70;5.90;;;18.30;99.90;;;;;;5097083;28;20373;-55
2021/08/01 07:42:31;;;;;;;10.10;5.72;;;18.20;99.90;;;;;;5092145;28;20451;-55
2021/08/01 07:45:01;;;;;;;9.85;5.80;;;18.30;99.90;;;;;;5097873;28;20784;-55
2021/08/01 07:47:27;;;;;;;10.38;5.60;;;18.40;99.90;;;;;;5095398;28;20410;-55
2021/08/01 07:49:53;;;;;;;9.40;5.87;;;18.40;99.90;;;;;;5100122;28;20419;-55
2021/08/01 07:52:20;;;;;;;10.95;5.60;;;18.50;99.90;;;;;;5097082;28;20453;-57
2021/08/01 07:54:47;;;;;;;9.30;5.68;;;18.60;99.90;;;;;;5099533;28;20394;-55
2021/08/01 07:57:30;;;;;;;11.38;5.88;;;18.40;99.90;;;;;;5097022;28;21095;-55
2021/08/01 07:59:58;;;;;;;9.00;5.70;;;18.50;99.90;;;;;;5094547;28;20386;-55
2021/08/01 08:02:25;;;;;;;9.85;5.32;;;18.60;99.90;;;;;;5098917;28;20376;-55
2021/08/01 08:04:51;;;;;;;13.20;5.78;;;18.60;99.90;;;;;;5098884;28;20388;-55
2021/08/01 08:07:17;;;;;;;11.80;5.30;;;18.50;99.90;;;;;;5108573;28;20407;-55
2021/08/01 08:09:43;;;;;;;9.73;5.60;;;17.00;99.90;;;;;;5110967;28;20384;-54
2021/08/01 08:12:09;;;;;;;10.60;5.50;;;18.30;99.90;;;;;;5111785;28;20724;-55
2021/08/01 08:14:35;;;;;;;9.50;5.28;;;18.40;99.90;;;;;;5110832;28;20396;-55
2021/08/01 08:17:02;;;;;;;10.93;5.60;;;18.50;99.90;;;;;;5094543;28;20551;-55
2021/08/01 08:19:27;;;;;;;11.95;5.50;;;18.50;99.90;;;;;;5090895;28;20383;-55
2021/08/01 08:21:54;;;;;;;10.57;5.10;;;18.80;99.90;;;;;;5090993;28;20386;-55
2021/08/01 08:24:20;;;;;;;11.63;5.40;;;18.90;99.90;;;;;;5100309;28;20392;-56
2021/08/01 08:26:46;;;;;;;10.20;5.60;;;19.10;99.90;;;;;;5096302;28;20728;-55
2021/08/01 08:29:11;;;;;;;8.75;5.00;;;19.10;99.90;;;;;;5111323;28;20392;-55
2021/08/01 08:31:37;;;;;;;9.40;4.97;;;19.30;99.90;;;;;;5110788;28;20403;-55
2021/08/01 08:34:03;;;;;;;9.50;5.20;;;19.40;99.90;;;;;;5111560;28;20396;-55
2021/08/01 08:36:28;;;;;;;9.03;4.70;;;19.40;99.90;;;;;;5110670;28;20380;-55
2021/08/01 08:38:54;;;;;;;8.05;4.88;;;18.10;99.90;;;;;;5096666;28;20382;-55
2021/08/01 08:41:21;;;;;;;10.50;4.85;;;19.60;99.90;;;;;;5090981;28;20454;-56
2021/08/01 08:43:46;;;;;;;8.60;5.00;;;19.70;99.90;;;;;;5090848;28;20440;-55
2021/08/01 08:46:13;;;;;;;10.80;4.80;;;19.70;99.90;;;;;;5092679;28;20495;-55
2021/08/01 08:48:40;;;;;;;9.13;4.72;;;19.50;99.90;;;;;;5092671;28;20390;-55
2021/08/01 08:51:10;;;;;;;8.73;5.60;;;19.40;99.90;;;;;;5092137;28;20480;-55
2021/08/01 08:53:42;;;;;;;10.50;5.35;;;19.30;99.90;;;;;;5100953;28;20405;-55
2021/08/01 08:56:09;;;;;;;10.73;5.78;;;19.30;99.90;;;;;;5092150;28;20408;-55
2021/08/01 08:58:36;;;;;;;10.73;5.63;;;19.20;99.90;;;;;;5098610;28;20388;-55
2021/08/01 09:01:03;;;;;;;8.40;5.63;;;19.30;99.90;;;;;;5107277;28;20403;-55
2021/08/01 09:03:30;;;;;;;11.07;5.18;;;19.30;99.90;;;;;;5108805;28;20380;-55
2021/08/01 09:05:59;;;;;;;10.73;5.90;;;19.30;99.90;;;;;;5108108;28;20865;-55
2021/08/01 09:08:25;;;;;;;7.80;4.30;;;19.30;99.90;;;;;;5109222;28;20457;-56
2021/08/01 09:10:52;;;;;;;10.77;5.90;;;19.30;99.90;;;;;;5110037;28;20391;-55
2021/08/01 09:13:56;;;;;;;9.80;5.72;;;19.10;99.90;;;;;;5109803;28;20377;-55
2021/08/01 09:16:39;;;;;;;10.80;5.45;;;18.90;99.90;;;;;;5073646;28;20401;-55
2021/08/01 09:19:23;;;;;;;10.25;6.15;;;19.00;99.90;;;;;;5084344;28;20420;-55
2021/08/01 09:21:49;;;;;;;9.20;5.00;;;19.10;99.90;;;;;;5072988;28;20478;-55
2021/08/01 09:24:14;;;;;;;10.50;5.50;;;19.20;99.90;;;;;;5078143;28;20527;-55
2021/08/01 09:26:53;;;;;;;9.10;5.30;;;19.10;99.90;;;;;;5077466;28;20546;-55
2021/08/01 09:29:19;;;;;;;11.35;5.60;;;19.20;99.90;;;;;;5081159;28;20434;-56
2021/08/01 09:31:57;;;;;;;9.53;5.63;;;19.10;99.90;;;;;;5076444;28;20405;-54
2021/08/01 09:34:27;;;;;;;9.50;5.20;;;19.20;99.90;;;;;;5083406;28;20425;-54
2021/08/01 09:37:04;;;;;;;9.32;5.57;;;19.10;99.90;;;;;;5080576;28;20451;-55
2021/08/01 09:39:40;;;;;;;8.83;5.30;;;19.30;99.90;;;;;;5074458;28;20467;-55
2021/08/01 09:42:07;;;;;;;9.07;4.90;;;19.70;99.90;;;;;;5075170;28;20438;-55
2021/08/01 09:44:37;;;;;;;9.38;5.22;;;20.00;99.90;;;;;;5078792;28;20425;-55
2021/08/01 09:47:03;;;;;;;8.77;5.15;;;20.20;99.90;;;;;;5078060;28;20983;-55
2021/08/01 09:49:29;;;;;;;9.30;4.73;;;20.10;99.90;;;;;;5079569;28;20397;-55
2021/08/01 09:51:57;;;;;;;8.07;5.03;;;20.00;99.90;;;;;;5082360;28;20389;-55
2021/08/01 09:54:43;;;;;;;8.77;5.07;;;20.20;99.90;;;;;;5084920;28;20401;-56
2021/08/01 09:57:14;;;;;;;10.98;5.03;;;20.20;99.90;;;;;;5079230;28;20406;-55
2021/08/01 09:59:40;;;;;;;9.15;4.90;;;20.20;99.90;;;;;;5078678;28;20907;-56
2021/08/01 10:02:06;;;;;;;9.18;4.88;;;20.30;99.90;;;;;;5083210;28;20406;-55
2021/08/01 10:04:42;;;;;;;10.77;5.30;;;20.40;99.90;;;;;;5074530;28;20422;-56
2021/08/01 10:07:12;;;;;;;8.50;5.47;;;20.70;99.90;;;;;;5075792;28;20419;-56
2021/08/01 10:09:49;;;;;;;8.93;5.30;;;21.00;99.90;;;;;;5075500;28;21113;-55
2021/08/01 10:12:15;;;;;;;11.25;5.70;;;20.90;99.90;;;;;;5075481;28;20436;-55
2021/08/01 10:14:44;;;;;;;12.00;5.20;;;20.80;99.90;;;;;;5088374;28;20420;-56
2021/08/01 10:17:10;;;;;;;7.85;5.00;;;20.90;99.90;;;;;;5103742;28;20396;-55
2021/08/01 10:19:36;;;;;;;7.60;4.22;;;21.00;99.90;;;;;;5103443;28;20457;-55
2021/08/01 10:22:04;;;;;;;16.02;6.25;;;20.60;99.90;;;;;;5098760;28;20386;-55
2021/08/01 10:24:33;;;;;;;11.95;5.40;;;20.30;99.90;;;;;;5094543;28;20952;-55
2021/08/01 10:27:09;;;;;;;9.07;4.97;;;20.40;99.90;;;;;;5102054;28;20408;-55
2021/08/01 10:29:49;;;;;;;10.45;5.32;;;20.50;99.90;;;;;;5096567;28;20843;-55
2021/08/01 10:32:21;;;;;;;10.23;5.13;;;20.50;99.90;;;;;;5102422;28;20380;-55
2021/08/01 10:34:57;;;;;;;9.30;5.00;;;20.80;99.90;;;;;;5097853;28;21033;-55
2021/08/01 10:37:37;;;;;;;9.80;5.28;;;20.80;99.90;;;;;;5098328;28;20738;-55
2021/08/01 10:40:04;;;;;;;9.57;5.20;;;20.80;99.90;;;;;;5097836;28;20444;-55
2021/08/01 10:42:32;;;;;;;9.45;5.93;;;20.70;99.90;;;;;;5096275;28;20373;-55
2021/08/01 10:44:59;;;;;;;10.10;6.17;;;20.50;99.90;;;;;;5099335;28;20472;-55
2021/08/01 10:47:26;;;;;;;11.30;5.80;;;20.20;99.90;;;;;;5096569;28;20409;-56
2021/08/01 10:49:52;;;;;;;9.02;5.18;;;20.20;99.90;;;;;;5097197;28;21237;-55
2021/08/01 10:52:19;;;;;;;9.18;4.45;;;20.10;99.90;;;;;;5097405;28;20432;-55
2021/08/01 10:54:57;;;;;;;9.00;4.80;;;20.20;99.90;;;;;;5097706;28;20368;-55
2021/08/01 10:57:25;;;;;;;9.23;4.60;;;20.60;99.90;;;;;;5091403;28;20386;-56
2021/08/01 10:59:50;;;;;;;8.17;4.80;;;20.80;99.90;;;;;;5100724;28;20376;-55
2021/08/01 11:02:17;;;;;;;8.10;4.53;;;20.90;99.90;;;;;;5109623;28;20421;-55
2021/08/01 11:04:45;;;;;;;10.35;5.05;;;21.20;99.90;;;;;;5105612;28;20388;-52
2021/08/01 11:07:12;;;;;;;9.57;4.80;;;21.50;99.90;;;;;;5108196;28;20434;-55
2021/08/01 11:09:38;;;;;;;8.88;5.18;;;21.50;99.90;;;;;;5108441;28;20395;-55
2021/08/01 11:12:19;;;;;;;9.23;5.40;;;21.50;99.90;;;;;;5109315;28;20400;-55
2021/08/01 11:14:53;;;;;;;8.90;4.97;;;21.00;99.90;;;;;;5108665;28;20603;-55
2021/08/01 11:17:20;;;;;;;9.32;5.50;;;20.70;99.90;;;;;;5113508;28;20407;-55
2021/08/01 11:19:46;;;;;;;10.40;5.13;;;20.60;99.90;;;;;;5102374;28;21025;-55
2021/08/01 11:22:48;;;;;;;8.93;5.60;;;21.00;99.90;;;;;;5092917;28;20464;-54
2021/08/01 11:25:33;;;;;;;8.10;5.40;;;21.40;99.90;;;;;;5030137;28;20935;-55
2021/08/01 11:28:15;;;;;;;9.47;5.17;;;21.90;99.90;;;;;;5088249;28;20423;-53
2021/08/01 11:30:49;;;;;;;11.32;6.20;;;22.10;99.90;;;;;;5092218;28;20914;-55
2021/08/01 11:33:42;;;;;;;9.45;5.30;;;21.70;99.90;;;;;;5092748;28;20382;-53
2021/08/01 11:36:15;;;;;;;10.23;5.20;;;22.10;99.90;;;;;;5092658;28;20385;-54
2021/08/01 11:38:59;;;;;;;10.50;5.60;;;21.90;99.90;;;;;;5091007;28;20378;-54
2021/08/01 11:41:27;;;;;;;8.88;4.90;;;21.60;99.90;;;;;;5112215;28;20463;-54
2021/08/01 11:44:16;;;;;;;8.43;4.90;;;21.80;99.90;;;;;;5100463;28;20479;-54
2021/08/01 11:47:00;;;;;;;11.18;4.70;;;22.20;99.90;;;;;;5102623;28;20774;-54
2021/08/01 11:49:32;;;;;;;8.30;4.90;;;22.00;99.90;;;;;;5097175;28;20441;-54
2021/08/01 11:51:59;;;;;;;9.10;5.05;;;22.00;99.90;;;;;;5100887;28;20864;-54
2021/08/01 11:54:33;;;;;;;8.32;4.80;;;21.60;99.90;;;;;;5103100;28;20370;-54
2021/08/01 11:57:04;;;;;;;12.77;5.30;;;22.00;99.90;;;;;;5099385;28;20772;-54
2021/08/01 11:59:31;;;;;;;8.45;4.45;;;22.30;99.90;;;;;;5100260;28;20378;-55
2021/08/01 12:01:59;;;;;;;8.70;4.70;;;22.70;99.90;;;;;;5093622;28;20451;-54
2021/08/01 12:04:26;;;;;;;8.35;4.07;;;22.80;99.90;;;;;;5101170;28;20469;-54
2021/08/01 12:06:56;;;;;;;8.90;4.30;;;23.10;99.90;;;;;;5093866;28;20401;-54
2021/08/01 12:09:27;;;;;;;7.10;4.00;;;23.30;99.90;;;;;;5099082;28;20398;-54
2021/08/01 12:11:55;;;;;;;9.98;3.80;;;23.00;99.90;;;;;;5099571;28;20416;-54
2021/08/01 12:14:53;;;;;;;7.43;4.03;;;23.00;99.90;;;;;;5098713;28;20409;-54
2021/08/01 12:17:18;;;;;;;9.30;3.70;;;23.20;99.90;;;;;;5100975;28;20487;-55
2021/08/01 12:19:49;;;;;;;7.80;4.13;;;23.20;99.90;;;;;;5101473;28;20459;-54
2021/08/01 12:22:22;;;;;;;7.40;4.33;;;22.90;99.90;;;;;;5101253;28;20404;-54
2021/08/01 12:24:59;;;;;;;6.80;3.60;;;23.10;99.90;;;;;;5096549;28;20378;-55
2021/08/01 12:27:28;;;;;;;9.32;3.80;;;23.30;99.90;;;;;;5098820;28;20769;-55
2021/08/01 12:30:04;;;;;;;8.05;3.65;;;23.70;99.90;;;;;;5102865;28;20430;-55
2021/08/01 12:32:41;;;;;;;7.20;3.20;;;24.20;99.90;;;;;;5102230;28;20406;-56
2021/08/01 12:35:26;;;;;;;7.65;3.70;;;24.50;99.90;;;;;;5098224;28;20386;-55
2021/08/01 12:37:57;;;;;;;8.27;3.40;;;24.10;99.90;;;;;;5102875;28;20380;-55
2021/08/01 12:40:32;;;;;;;7.82;3.40;;;23.70;99.90;;;;;;5099526;28;20383;-55
2021/08/01 12:43:08;;;;;;;7.85;2.83;;;23.90;99.90;;;;;;5101436;28;20738;-54
2021/08/01 12:45:42;;;;;;;6.10;3.00;;;24.10;99.90;;;;;;5090604;28;20398;-56
2021/08/01 12:48:09;;;;;;;6.10;2.97;;;24.50;99.90;;;;;;5104508;28;20445;-55